createdAt,value
2023-02-05T00:04:37.513Z,10.6
2023-02-05T00:09:37.860Z,9.2
2023-02-05T00:14:38.314Z,11.3
2023-02-05T00:19:38.845Z,11.5
2023-02-05T00:24:39.199Z,10
2023-02-05T00:29:39.630Z,12.6
2023-02-05T00:34:40.237Z,9.5
2023-02-05T00:39:40.813Z,8.9
2023-02-05T00:44:41.263Z,10.6
2023-02-05T00:49:41.712Z,13.1
2023-02-05T00:54:42.129Z,13.5
2023-02-05T00:59:42.577Z,11.7
2023-02-05T01:04:43.265Z,11.1
2023-02-05T01:09:43.783Z,12.2
2023-02-05T01:14:44.213Z,9.2
2023-02-05T01:19:44.873Z,10.1
2023-02-05T01:24:45.276Z,8.6
2023-02-05T01:29:45.694Z,9.3
2023-02-05T01:34:46.475Z,8.8
2023-02-05T01:39:47.123Z,8.5
2023-02-05T01:44:47.520Z,8.8
2023-02-05T01:49:48.072Z,9.8
2023-02-05T01:54:48.531Z,11.1
2023-02-05T01:59:48.966Z,9.9
2023-02-05T02:04:49.528Z,8.9
2023-02-05T02:09:49.998Z,10.2
2023-02-05T02:14:50.406Z,8.6
2023-02-05T02:19:51.133Z,8.9
2023-02-05T02:24:55.151Z,9.2
2023-02-05T02:29:58.049Z,8.8
2023-02-05T02:34:59.748Z,8.7
2023-02-05T02:40:02.300Z,8.3
2023-02-05T02:45:02.791Z,6.3
2023-02-05T02:50:07.301Z,9.1
2023-02-05T02:55:07.725Z,8.4
2023-02-05T03:00:08.215Z,8
2023-02-05T03:05:11.630Z,9.9
2023-02-05T03:10:12.340Z,7
2023-02-05T03:15:16.129Z,7.3
2023-02-05T03:20:16.808Z,7.7
2023-02-05T03:25:17.270Z,8
2023-02-05T03:30:22.738Z,7.5
2023-02-05T03:35:23.145Z,7.6
2023-02-05T03:40:25.745Z,7.2
2023-02-05T03:45:29.579Z,8.2
2023-02-05T03:50:32.734Z,7.4
2023-02-05T03:55:35.070Z,8.7
2023-02-05T04:00:45.398Z,7.6
2023-02-05T04:05:48.461Z,8
2023-02-05T04:10:53.559Z,12.6
2023-02-05T04:15:54.088Z,10.2
2023-02-05T04:20:55.626Z,9.9
2023-02-05T04:25:56.023Z,9.3
2023-02-05T04:30:59.135Z,9.2
2023-02-05T04:35:59.667Z,9.1
2023-02-05T04:41:00.200Z,7.8
2023-02-05T04:46:01.680Z,7.9
2023-02-05T04:51:02.315Z,6.5
2023-02-05T04:56:05.166Z,7.4
2023-02-05T05:01:05.601Z,6.7
2023-02-05T05:06:08.131Z,6.6
2023-02-05T05:11:11.374Z,6.4
2023-02-05T05:16:13.134Z,6.8
2023-02-05T05:21:13.709Z,7.5
2023-02-05T05:26:14.111Z,7.1
2023-02-05T05:31:14.603Z,6.8
2023-02-05T05:36:15.067Z,5.6
2023-02-05T05:41:19.393Z,6.5
2023-02-05T05:46:22.574Z,8.8
2023-02-05T05:51:24.622Z,5.2
2023-02-05T05:56:30.278Z,10.9
2023-02-05T06:01:32.175Z,8.6
2023-02-05T06:06:35.115Z,9.1
2023-02-05T06:11:35.527Z,5.8
2023-02-05T06:16:36.069Z,5.4
2023-02-05T06:21:36.534Z,8.6
2023-02-05T06:26:41.329Z,5.7
2023-02-05T06:31:43.314Z,15.3
2023-02-05T06:36:45.644Z,6.2
2023-02-05T06:41:46.192Z,5.4
2023-02-05T06:46:48.826Z,8.6
2023-02-05T06:51:53.787Z,7.6
2023-02-05T06:56:57.672Z,4.2
2023-02-05T07:02:05.178Z,5.8
2023-02-05T07:07:13.741Z,4.6
2023-02-05T07:12:15.464Z,5
2023-02-05T07:17:19.869Z,13.4
2023-02-05T07:22:20.882Z,4.9
2023-02-05T07:27:21.581Z,49.2
2023-02-05T07:32:23.527Z,96.7
2023-02-05T07:37:27.006Z,68
2023-02-05T07:42:30.751Z,36.9
2023-02-05T07:47:34.046Z,43.2
2023-02-05T07:52:37.792Z,39.1
2023-02-05T07:57:38.328Z,24.9
2023-02-05T08:02:39.541Z,18.3
2023-02-05T08:07:47.136Z,19
2023-02-05T08:12:49.409Z,14.7
2023-02-05T08:17:57.456Z,14.7
2023-02-05T08:22:57.910Z,12.6
2023-02-05T08:28:04.489Z,15.2
2023-02-05T08:33:05.698Z,14.7
2023-02-05T08:38:06.538Z,16.8
2023-02-05T08:43:07.043Z,19.4
2023-02-05T08:48:09.994Z,14.5
2023-02-05T08:53:10.468Z,11.1
2023-02-05T08:58:12.979Z,10.1
2023-02-05T09:03:13.477Z,8.9
2023-02-05T09:08:14.428Z,7.8
2023-02-05T09:13:17.645Z,6
2023-02-05T09:18:23.552Z,5.8
2023-02-05T09:23:25.378Z,5.9
2023-02-05T09:28:25.994Z,7
2023-02-05T09:33:26.633Z,20.2
2023-02-05T09:38:34.333Z,7
2023-02-05T09:43:42.397Z,6.8
2023-02-05T09:48:35.267Z,7.9
2023-02-05T09:53:36.305Z,12.2
2023-02-05T09:58:36.777Z,13
2023-02-05T10:03:39.049Z,14.3
2023-02-05T10:08:39.557Z,15.2
2023-02-05T10:13:42.899Z,18
2023-02-05T10:18:45.625Z,16.6
2023-02-05T10:23:50.847Z,14.6
2023-02-05T10:28:51.325Z,12.1
2023-02-05T10:34:00.028Z,11.4
2023-02-05T10:38:59.387Z,15.2
2023-02-05T10:44:02.802Z,11.7
2023-02-05T10:49:05.759Z,7.5
2023-02-05T10:54:07.585Z,8
2023-02-05T10:59:08.122Z,8.1
2023-02-05T11:04:08.912Z,9.2
2023-02-05T11:09:16.853Z,11.6
2023-02-05T11:14:21.251Z,8.8
2023-02-05T11:19:30.728Z,8.3
2023-02-05T11:24:34.984Z,8.5
2023-02-05T11:29:41.436Z,9.8
2023-02-05T11:34:44.538Z,10.4
2023-02-05T11:39:48.846Z,11.7
2023-02-05T11:44:51.230Z,12.4
2023-02-05T11:49:58.296Z,12.8
2023-02-05T11:54:58.835Z,12.2
2023-02-05T11:59:59.337Z,9.5
2023-02-05T12:05:01.113Z,9.5
2023-02-05T12:10:01.598Z,10.4
2023-02-05T12:15:02.089Z,11.9
2023-02-05T12:20:02.732Z,10.6
2023-02-05T12:25:03.253Z,11.2
2023-02-05T12:30:03.702Z,11.5
2023-02-05T12:35:04.526Z,8.5
2023-02-05T12:40:07.678Z,12
2023-02-05T12:45:09.426Z,9.9
2023-02-05T12:50:12.282Z,6.7
2023-02-05T12:55:16.564Z,7.2
2023-02-05T13:00:18.304Z,6.9
2023-02-05T13:05:21.656Z,7.3
2023-02-05T13:10:25.017Z,8.7
2023-02-05T13:15:25.473Z,8.7
2023-02-05T13:20:34.488Z,9.3
2023-02-05T13:25:40.790Z,10.9
2023-02-05T13:30:42.033Z,9.1
2023-02-05T13:35:45.783Z,13.4
2023-02-05T13:40:49.371Z,13.3
2023-02-05T13:45:49.788Z,7.9
2023-02-05T13:50:51.466Z,22.1
2023-02-05T13:55:52.253Z,28.3
2023-02-05T14:00:53.056Z,48.7
2023-02-05T14:05:58.613Z,49.3
2023-02-05T14:11:07.841Z,17.6
2023-02-05T14:16:04.689Z,7.3
2023-02-05T14:21:05.606Z,6.1
2023-02-05T14:26:06.107Z,7.3
2023-02-05T14:31:07.291Z,7.1
2023-02-05T14:36:08.354Z,5.2
2023-02-05T14:41:08.845Z,6.6
2023-02-05T14:46:10.902Z,6.2
2023-02-05T14:51:11.424Z,8.3
2023-02-05T14:56:11.947Z,9.2
2023-02-05T15:01:14.930Z,11.9
2023-02-05T15:06:17.560Z,11
2023-02-05T15:11:18.080Z,10.8
2023-02-05T15:16:18.637Z,6.9
2023-02-05T15:21:19.313Z,7.7
2023-02-05T15:26:19.776Z,9.1
2023-02-05T15:31:24.855Z,14.6
2023-02-05T15:36:28.279Z,14.8
2023-02-05T15:41:32.246Z,22.4
2023-02-05T15:46:37.585Z,29.3
2023-02-05T15:51:38.176Z,17.1
2023-02-05T15:56:40.756Z,11.8
2023-02-05T16:01:42.780Z,10.4
2023-02-05T16:06:45.765Z,11.9
2023-02-05T16:11:48.439Z,6.8
2023-02-05T16:16:49.027Z,6.5
2023-02-05T16:21:57.611Z,6.2
2023-02-05T16:27:01.794Z,8.4
2023-02-05T16:32:02.791Z,9.3
2023-02-05T16:37:03.364Z,8.4
2023-02-05T16:42:04.578Z,9
2023-02-05T16:47:08.602Z,7.6
2023-02-05T16:52:10.301Z,11.5
2023-02-05T16:57:13.612Z,11.5
2023-02-05T17:02:14.465Z,10.3
2023-02-05T17:07:15.417Z,10
2023-02-05T17:12:19.948Z,10.6
2023-02-05T17:17:20.781Z,10.6
2023-02-05T17:22:26.029Z,13.6
2023-02-05T17:27:28.926Z,10
2023-02-05T17:32:31.900Z,12
2023-02-05T17:37:32.584Z,39.3
2023-02-05T17:42:46.373Z,14.7
2023-02-05T17:47:49.813Z,11.8
2023-02-05T17:52:50.249Z,10.8
2023-02-05T17:57:53.102Z,11.5
2023-02-05T18:02:58.713Z,12.2
2023-02-05T18:07:59.213Z,9.3
2023-02-05T18:13:04.557Z,8.1
2023-02-05T18:18:06.822Z,10
2023-02-05T18:23:12.342Z,9
2023-02-05T18:28:10.836Z,9.7
2023-02-05T18:33:17.854Z,45.7
2023-02-05T18:38:18.580Z,11.9
2023-02-05T18:43:21.856Z,9.9
2023-02-05T18:48:25.549Z,10.9
2023-02-05T18:53:28.170Z,11.8
2023-02-05T18:58:30.165Z,10.1
2023-02-05T19:03:37.380Z,9.1
2023-02-05T19:08:33.736Z,11.3
2023-02-05T19:13:37.688Z,10
2023-02-05T19:18:38.905Z,9.9
2023-02-05T19:23:39.333Z,7.9
2023-02-05T19:28:43.440Z,9.5
2023-02-05T19:33:46.300Z,9.4
2023-02-05T19:38:51.215Z,11.6
2023-02-05T19:43:52.034Z,10.4
2023-02-05T19:48:52.458Z,12
2023-02-05T19:54:00.599Z,10
2023-02-05T19:59:01.149Z,11.9
2023-02-05T20:04:05.781Z,9.9
2023-02-05T20:09:10.548Z,10.8
2023-02-05T20:14:13.767Z,11
2023-02-05T20:19:19.480Z,12.5
2023-02-05T20:24:20.860Z,12
2023-02-05T20:29:23.271Z,33.1
2023-02-05T20:34:23.883Z,13
2023-02-05T20:39:26.986Z,12.5
2023-02-05T20:44:27.487Z,13.2
2023-02-05T20:49:33.843Z,11.7
2023-02-05T20:54:35.553Z,11.2
2023-02-05T20:59:38.422Z,12.3
2023-02-05T21:04:41.365Z,13.1
2023-02-05T21:09:41.833Z,12
2023-02-05T21:14:46.198Z,12.5
2023-02-05T21:19:52.857Z,11.7
2023-02-05T21:24:53.353Z,13.2
2023-02-05T21:29:53.776Z,11.7
2023-02-05T21:34:58.973Z,13.1
2023-02-05T21:40:08.619Z,14.3
2023-02-05T21:45:09.861Z,13.7
2023-02-05T21:50:11.633Z,13.4
2023-02-05T21:55:12.228Z,12.8
2023-02-05T22:00:15.900Z,15.5
2023-02-05T22:05:16.547Z,23.5
2023-02-05T22:10:19.898Z,15.6
2023-02-05T22:15:25.470Z,14.2
2023-02-05T22:20:29.106Z,15.5
2023-02-05T22:25:40.072Z,14.9
2023-02-05T22:30:33.026Z,15
2023-02-05T22:35:36.033Z,15.4
2023-02-05T22:40:37.014Z,16.1
2023-02-05T22:45:39.636Z,17.4
2023-02-05T22:50:41.698Z,14.9
2023-02-05T22:55:44.350Z,15
2023-02-05T23:00:45.109Z,14.7
2023-02-05T23:05:45.586Z,17
2023-02-05T23:10:46.160Z,13
2023-02-05T23:15:46.857Z,15.7
2023-02-05T23:20:49.947Z,15.2
2023-02-05T23:25:50.362Z,13.2
2023-02-05T23:30:55.030Z,12.2
2023-02-05T23:35:58.235Z,14.4
2023-02-05T23:40:59.777Z,15.3
2023-02-05T23:46:08.862Z,14.8
2023-02-05T23:51:10.863Z,15.7
2023-02-05T23:56:12.574Z,15.7
